Cactus, Texas
Current Conditions -  °F | °C
As of 10:53 PM on Wednesday 26 Nov 2014 (Local Time) from KDHT Reporting Station
Clear Clear  
Wind Chill: 25°   Ceiling: Unl
Heat Index: 31°   Visibility: 10mi
Dew Point: 20°   Wind: 6mph
Humidity: 64%   Direction: 110°ESE
Pressure: 30.39"   Gusts: NA
Location:  36.05°N, 102°W
Report Text: KDHT 270453Z AUTO 11005KT 10SM CLR M01/M07 A3039 RMK AO2 SLP295 T10061067
Loading
Personal Weather Stations






























Interactive Weather Map New forecast layout! Learn more

10-Day Weather Forecast

Advertisements
Track Severe Weather on mobile